Time;durP1;ratioP1;P1;durP2;ratioP2;P2;SDS_P1;SDS_P2;PMS_P1;PMS_P2;Temp;Humidity;BMP_temperature;BMP_pressure;BME280_temperature;BME280_humidity;BME280_pressure;Samples;Min_cycle;Max_cycle;Signal;HPM_P1;HPM_P2
2022/09/10 00:01:22;;;;;;;3.37;2.57;;;;;;;;;;5028845;28;83612;-54
2022/09/10 00:03:52;;;;;;;4.27;2.73;;;;;;;;;;5027458;28;84011;-54
2022/09/10 00:06:20;;;;;;;4.00;2.63;;;;;;;;;;5027587;28;83642;-53
2022/09/10 00:08:49;;;;;;;4.57;2.53;;;;;;;;;;5039768;28;82027;-54
2022/09/10 00:11:19;;;;;;;5.30;2.47;;;;;;;;;;5047618;27;83639;-53
2022/09/10 00:13:48;;;;;;;4.47;2.83;;;;;;;;;;5046492;27;82989;-54
2022/09/10 00:16:17;;;;;;;4.93;2.77;;;;;;;;;;5047091;27;83803;-54
2022/09/10 00:18:48;;;;;;;4.13;2.80;;;;;;;;;;5047285;27;83020;-53
2022/09/10 00:21:17;;;;;;;5.00;3.17;;;;;;;;;;5047257;27;82040;-54
2022/09/10 00:23:45;;;;;;;4.97;2.60;;;;;;;;;;5047401;27;82799;-53
2022/09/10 00:26:14;;;;;;;3.90;2.27;;;;;;;;;;5047632;28;83907;-53
2022/09/10 00:28:42;;;;;;;3.60;2.37;;;;;;;;;;5048086;27;81736;-54
2022/09/10 00:31:10;;;;;;;3.97;2.70;;;;;;;;;;5047883;28;83961;-53
2022/09/10 00:33:39;;;;;;;2.37;2.13;;;;;;;;;;5048668;27;83977;-53
2022/09/10 00:36:15;;;;;;;3.83;2.67;;;;;;;;;;5048432;27;83659;-54
2022/09/10 00:38:43;;;;;;;3.63;2.40;;;;;;;;;;5059145;27;81914;-54
2022/09/10 00:41:12;;;;;;;3.20;2.03;;;;;;;;;;5059896;27;83713;-53
2022/09/10 00:43:47;;;;;;;3.87;2.37;;;;;;;;;;5057708;27;83922;-53
2022/09/10 00:46:17;;;;;;;2.77;1.70;;;;;;;;;;5067300;27;84602;-53
2022/09/10 00:48:45;;;;;;;3.63;2.20;;;;;;;;;;5027151;28;81813;-54
2022/09/10 00:51:15;;;;;;;6.60;2.30;;;;;;;;;;5044915;27;83771;-54
2022/09/10 00:53:43;;;;;;;4.43;1.83;;;;;;;;;;5055035;27;82789;-55
2022/09/10 00:56:13;;;;;;;3.40;2.40;;;;;;;;;;5046789;28;82840;-54
2022/09/10 00:58:42;;;;;;;2.90;2.17;;;;;;;;;;5047674;27;81978;-54
2022/09/10 01:01:10;;;;;;;2.70;2.20;;;;;;;;;;5046960;28;83654;-54
2022/09/10 01:03:38;;;;;;;3.43;2.50;;;;;;;;;;5056891;27;84180;-54
2022/09/10 01:06:07;;;;;;;3.17;1.80;;;;;;;;;;5061306;27;82720;-55
2022/09/10 01:08:36;;;;;;;5.37;2.03;;;;;;;;;;5047225;27;82909;-52
2022/09/10 01:11:08;;;;;;;3.43;2.17;;;;;;;;;;5040811;27;84265;-52
2022/09/10 01:13:50;;;;;;;4.10;2.13;;;;;;;;;;5041647;27;83064;-52
2022/09/10 01:16:19;;;;;;;5.07;2.13;;;;;;;;;;5067383;27;83545;-55
2022/09/10 01:18:50;;;;;;;4.20;1.73;;;;;;;;;;5066519;27;82050;-54
2022/09/10 01:21:20;;;;;;;3.07;2.03;;;;;;;;;;5043849;27;82399;-54
2022/09/10 01:24:07;;;;;;;2.87;2.03;;;;;;;;;;5033047;27;83712;-54
2022/09/10 01:26:41;;;;;;;3.67;2.10;;;;;;;;;;5064657;27;83711;-54
2022/09/10 01:29:11;;;;;;;3.43;2.30;;;;;;;;;;5067025;27;82081;-54
2022/09/10 01:31:40;;;;;;;1.70;1.60;;;;;;;;;;5044069;27;83903;-54
2022/09/10 01:34:11;;;;;;;3.30;2.10;;;;;;;;;;5052566;27;85108;-54
2022/09/10 01:36:39;;;;;;;3.13;2.10;;;;;;;;;;5049479;27;84717;-54
2022/09/10 01:39:07;;;;;;;4.07;2.27;;;;;;;;;;5045848;28;81955;-54
2022/09/10 01:41:35;;;;;;;2.47;1.87;;;;;;;;;;5042061;27;82555;-54
2022/09/10 01:44:08;;;;;;;3.47;2.37;;;;;;;;;;5037117;27;83904;-54
2022/09/10 01:46:40;;;;;;;2.77;2.53;;;;;;;;;;5044878;27;83498;-54
2022/09/10 01:49:13;;;;;;;2.80;2.10;;;;;;;;;;5029949;28;81845;-54
2022/09/10 01:51:49;;;;;;;2.80;2.10;;;;;;;;;;5046396;27;83779;-53
2022/09/10 01:54:24;;;;;;;5.03;2.57;;;;;;;;;;5056556;27;82835;-54
2022/09/10 01:56:54;;;;;;;5.70;2.60;;;;;;;;;;5034620;27;83803;-54
2022/09/10 01:59:23;;;;;;;4.07;2.60;;;;;;;;;;5025451;28;82903;-54
2022/09/10 02:01:56;;;;;;;5.83;2.10;;;;;;;;;;5025854;28;82556;-53
2022/09/10 02:04:25;;;;;;;3.80;1.77;;;;;;;;;;5052527;27;83040;-54
2022/09/10 02:06:53;;;;;;;3.50;2.27;;;;;;;;;;5047138;27;83635;-53
2022/09/10 02:09:21;;;;;;;3.57;2.30;;;;;;;;;;5045600;28;81865;-54
2022/09/10 02:11:50;;;;;;;2.20;2.00;;;;;;;;;;5045207;28;83654;-54
2022/09/10 02:14:20;;;;;;;4.10;2.40;;;;;;;;;;5052292;27;83924;-53
2022/09/10 02:16:51;;;;;;;4.23;2.40;;;;;;;;;;5027507;27;83928;-54
2022/09/10 02:19:20;;;;;;;4.93;2.40;;;;;;;;;;5052992;27;81957;-54
2022/09/10 02:21:48;;;;;;;4.53;2.40;;;;;;;;;;5064184;27;84092;-54
2022/09/10 02:24:17;;;;;;;4.57;2.87;;;;;;;;;;5063370;27;83826;-55
2022/09/10 02:26:46;;;;;;;4.03;2.40;;;;;;;;;;5050571;27;83762;-54
2022/09/10 02:29:14;;;;;;;3.77;2.50;;;;;;;;;;5065431;27;81917;-55
2022/09/10 02:31:43;;;;;;;5.17;2.90;;;;;;;;;;5065316;27;81934;-54
2022/09/10 02:34:11;;;;;;;5.60;3.27;;;;;;;;;;5057632;27;83787;-54
2022/09/10 02:36:42;;;;;;;3.63;2.53;;;;;;;;;;5065538;27;83737;-54
2022/09/10 02:39:10;;;;;;;6.00;2.93;;;;;;;;;;5064060;27;81858;-54
2022/09/10 02:41:40;;;;;;;4.37;2.80;;;;;;;;;;5065366;27;83664;-54
2022/09/10 02:44:08;;;;;;;5.80;3.33;;;;;;;;;;5063512;27;84094;-55
2022/09/10 02:46:37;;;;;;;2.80;2.57;;;;;;;;;;5065627;27;83654;-54
2022/09/10 02:49:05;;;;;;;3.47;2.13;;;;;;;;;;5062881;27;82989;-53
2022/09/10 02:51:33;;;;;;;4.83;2.63;;;;;;;;;;5065552;27;83808;-54
2022/09/10 02:54:03;;;;;;;3.83;2.77;;;;;;;;;;5063102;27;83803;-54
2022/09/10 02:56:33;;;;;;;3.43;2.53;;;;;;;;;;5049117;27;83456;-54
2022/09/10 02:59:01;;;;;;;4.43;2.90;;;;;;;;;;5053147;27;81692;-54
2022/09/10 03:01:29;;;;;;;3.97;2.87;;;;;;;;;;5064449;27;83971;-54
2022/09/10 03:03:58;;;;;;;4.40;3.23;;;;;;;;;;5040429;27;82622;-53
2022/09/10 03:06:26;;;;;;;5.43;2.87;;;;;;;;;;5045468;28;82671;-54
2022/09/10 03:08:56;;;;;;;4.77;2.33;;;;;;;;;;5045540;27;81877;-53
2022/09/10 03:11:26;;;;;;;5.70;2.67;;;;;;;;;;5044529;28;83883;-53
2022/09/10 03:13:54;;;;;;;4.30;2.57;;;;;;;;;;5045074;27;84869;-54
2022/09/10 03:16:23;;;;;;;3.70;1.97;;;;;;;;;;5044278;28;83927;-54
2022/09/10 03:18:51;;;;;;;3.77;2.60;;;;;;;;;;5051238;27;82468;-53
2022/09/10 03:21:20;;;;;;;4.83;2.27;;;;;;;;;;5063107;27;83864;-54
2022/09/10 03:23:49;;;;;;;3.27;2.10;;;;;;;;;;5052569;27;83686;-54
2022/09/10 03:26:18;;;;;;;3.67;2.13;;;;;;;;;;5058551;27;83699;-54
2022/09/10 03:28:48;;;;;;;4.87;2.60;;;;;;;;;;5044886;27;81832;-54
2022/09/10 03:31:17;;;;;;;4.20;2.53;;;;;;;;;;5045034;27;84068;-54
2022/09/10 03:33:46;;;;;;;3.20;1.93;;;;;;;;;;5045298;27;83863;-54
2022/09/10 03:36:14;;;;;;;4.73;3.10;;;;;;;;;;5044242;28;83570;-54
2022/09/10 03:38:42;;;;;;;2.27;2.07;;;;;;;;;;5043793;28;82664;-54
2022/09/10 03:41:11;;;;;;;2.60;2.20;;;;;;;;;;5044634;28;82561;-53
2022/09/10 03:43:40;;;;;;;3.67;1.80;;;;;;;;;;5045040;27;83619;-54
2022/09/10 03:46:11;;;;;;;2.50;1.80;;;;;;;;;;5044417;28;82529;-54
2022/09/10 03:48:39;;;;;;;3.53;1.60;;;;;;;;;;5048296;27;81999;-54
2022/09/10 03:51:09;;;;;;;3.47;2.07;;;;;;;;;;5064760;27;83860;-54
2022/09/10 03:53:38;;;;;;;3.07;1.73;;;;;;;;;;5062302;27;84318;-54
2022/09/10 03:56:07;;;;;;;2.73;1.80;;;;;;;;;;5053711;27;83675;-54
2022/09/10 03:58:35;;;;;;;2.90;1.97;;;;;;;;;;5065126;27;82005;-54
2022/09/10 04:01:04;;;;;;;2.20;1.73;;;;;;;;;;5064307;27;84023;-54
2022/09/10 04:03:33;;;;;;;2.23;1.27;;;;;;;;;;5059563;27;85004;-54
2022/09/10 04:06:02;;;;;;;4.27;2.10;;;;;;;;;;5043925;27;83500;-54
2022/09/10 04:08:30;;;;;;;3.20;1.83;;;;;;;;;;5043770;27;82126;-54
2022/09/10 04:11:02;;;;;;;2.70;1.27;;;;;;;;;;5043701;28;83903;-53
2022/09/10 04:13:30;;;;;;;1.67;1.23;;;;;;;;;;5045121;27;82647;-54
2022/09/10 04:16:00;;;;;;;2.83;1.80;;;;;;;;;;5043706;28;83622;-55
2022/09/10 04:18:28;;;;;;;3.23;1.77;;;;;;;;;;5044894;27;81741;-54
2022/09/10 04:20:58;;;;;;;2.73;1.47;;;;;;;;;;5064255;27;82903;-54
2022/09/10 04:23:26;;;;;;;1.33;1.23;;;;;;;;;;5061370;27;82727;-53
2022/09/10 04:25:55;;;;;;;1.90;1.33;;;;;;;;;;5043208;28;83536;-54
2022/09/10 04:28:24;;;;;;;3.63;1.50;;;;;;;;;;5042720;27;82909;-54
2022/09/10 04:30:52;;;;;;;1.43;1.13;;;;;;;;;;5043967;27;83670;-54
2022/09/10 04:33:20;;;;;;;2.83;1.60;;;;;;;;;;5044716;27;83963;-54
2022/09/10 04:35:48;;;;;;;1.90;1.10;;;;;;;;;;5043729;27;83926;-54
2022/09/10 04:38:18;;;;;;;1.77;1.20;;;;;;;;;;5043352;28;81856;-54
2022/09/10 04:40:46;;;;;;;1.20;1.03;;;;;;;;;;5043592;27;83519;-54
2022/09/10 04:43:14;;;;;;;1.53;1.00;;;;;;;;;;5043075;27;83966;-53
2022/09/10 04:45:43;;;;;;;2.77;1.33;;;;;;;;;;5064993;27;83451;-54
2022/09/10 04:48:11;;;;;;;1.50;1.23;;;;;;;;;;5067397;27;82442;-54
2022/09/10 04:50:40;;;;;;;1.47;1.37;;;;;;;;;;5048160;27;81969;-54
2022/09/10 04:53:30;;;;;;;1.97;1.20;;;;;;;;;;5050783;27;85521;-54
2022/09/10 04:55:58;;;;;;;2.00;1.10;;;;;;;;;;5037238;27;84714;-53
2022/09/10 04:58:26;;;;;;;1.97;1.10;;;;;;;;;;5042339;28;82039;-54
2022/09/10 05:00:55;;;;;;;0.77;0.70;;;;;;;;;;5047369;27;82605;-54
2022/09/10 05:03:24;;;;;;;1.73;0.90;;;;;;;;;;5048653;27;82982;-54
2022/09/10 05:05:52;;;;;;;1.13;0.93;;;;;;;;;;5066522;27;82490;-54
2022/09/10 05:08:20;;;;;;;1.27;1.00;;;;;;;;;;5046862;28;81849;-54
2022/09/10 05:10:50;;;;;;;1.00;0.90;;;;;;;;;;5047183;28;81723;-54
2022/09/10 05:13:18;;;;;;;2.63;0.70;;;;;;;;;;5048161;27;81851;-54
2022/09/10 05:15:46;;;;;;;1.93;1.33;;;;;;;;;;5064425;27;83645;-54
2022/09/10 05:18:15;;;;;;;1.40;0.80;;;;;;;;;;5055246;27;82843;-54
2022/09/10 05:20:44;;;;;;;0.87;0.70;;;;;;;;;;5066755;27;82746;-53
2022/09/10 05:23:12;;;;;;;0.97;0.70;;;;;;;;;;5064614;27;82597;-53
2022/09/10 05:25:40;;;;;;;1.43;1.00;;;;;;;;;;5046157;28;83732;-54
2022/09/10 05:28:10;;;;;;;1.60;0.87;;;;;;;;;;5046946;28;81819;-54
2022/09/10 05:30:38;;;;;;;1.13;0.80;;;;;;;;;;5046179;28;83547;-53
2022/09/10 05:33:06;;;;;;;0.73;0.60;;;;;;;;;;5049218;27;83866;-54
2022/09/10 05:35:35;;;;;;;0.60;0.60;;;;;;;;;;5066966;27;83896;-54
2022/09/10 05:38:03;;;;;;;0.93;0.87;;;;;;;;;;5065915;27;81871;-54
2022/09/10 05:40:31;;;;;;;0.60;0.60;;;;;;;;;;5066405;27;83516;-54
2022/09/10 05:42:59;;;;;;;1.93;1.03;;;;;;;;;;5055373;27;85013;-54
2022/09/10 05:45:29;;;;;;;1.43;0.90;;;;;;;;;;5066227;27;86371;-54
2022/09/10 05:47:58;;;;;;;0.73;0.73;;;;;;;;;;5062507;27;81893;-54
2022/09/10 05:50:27;;;;;;;1.10;0.70;;;;;;;;;;5045777;28;83662;-53
2022/09/10 05:52:55;;;;;;;1.73;0.70;;;;;;;;;;5046933;27;83839;-54
2022/09/10 05:55:23;;;;;;;0.60;0.60;;;;;;;;;;5041632;27;83625;-54
2022/09/10 05:57:52;;;;;;;1.20;0.93;;;;;;;;;;5041977;27;82135;-54
2022/09/10 06:00:20;;;;;;;0.80;0.63;;;;;;;;;;5065862;27;83764;-54
2022/09/10 06:02:49;;;;;;;1.27;0.83;;;;;;;;;;5064822;27;83066;-53
2022/09/10 06:05:21;;;;;;;0.40;0.40;;;;;;;;;;5055889;27;82714;-54
2022/09/10 06:07:49;;;;;;;0.63;0.60;;;;;;;;;;5045596;27;82827;-54
2022/09/10 06:10:18;;;;;;;0.77;0.77;;;;;;;;;;5045904;27;82770;-54
2022/09/10 06:12:47;;;;;;;0.93;0.70;;;;;;;;;;5045379;27;83913;-54
2022/09/10 06:15:15;;;;;;;1.47;0.80;;;;;;;;;;5045620;27;83469;-54
2022/09/10 06:17:44;;;;;;;1.37;0.80;;;;;;;;;;5046057;27;81969;-54
2022/09/10 06:20:14;;;;;;;0.40;0.40;;;;;;;;;;5058784;27;83604;-54
2022/09/10 06:22:42;;;;;;;1.40;0.90;;;;;;;;;;5046238;27;84183;-54
2022/09/10 06:25:11;;;;;;;0.70;0.50;;;;;;;;;;5050069;27;82537;-54
2022/09/10 06:27:40;;;;;;;1.03;0.63;;;;;;;;;;5045427;28;81952;-54
2022/09/10 06:30:08;;;;;;;2.40;0.60;;;;;;;;;;5044782;27;83540;-53
2022/09/10 06:32:38;;;;;;;1.93;0.87;;;;;;;;;;5045703;27;84091;-53
2022/09/10 06:35:06;;;;;;;4.27;0.97;;;;;;;;;;5054770;27;82251;-54
2022/09/10 06:37:36;;;;;;;0.50;0.50;;;;;;;;;;5048434;27;82010;-54
2022/09/10 06:40:05;;;;;;;1.40;0.70;;;;;;;;;;5059600;27;83722;-54
2022/09/10 06:42:34;;;;;;;0.90;0.70;;;;;;;;;;5030444;27;82843;-54
2022/09/10 06:45:02;;;;;;;0.53;0.43;;;;;;;;;;5040384;27;83520;-54
2022/09/10 06:47:30;;;;;;;1.00;0.67;;;;;;;;;;5036309;28;82068;-54
2022/09/10 06:50:18;;;;;;;0.97;0.60;;;;;;;;;;5039707;28;82611;-54
2022/09/10 06:52:48;;;;;;;2.93;0.37;;;;;;;;;;5044873;28;83682;-54
2022/09/10 06:55:17;;;;;;;0.47;0.40;;;;;;;;;;5050325;27;83676;-54
2022/09/10 06:57:45;;;;;;;0.40;0.40;;;;;;;;;;5048015;27;82737;-54
2022/09/10 07:00:14;;;;;;;1.23;0.60;;;;;;;;;;5063349;27;82586;-54
2022/09/10 07:02:43;;;;;;;3.33;0.80;;;;;;;;;;5055638;27;83744;-54
2022/09/10 07:05:11;;;;;;;0.57;0.50;;;;;;;;;;5049216;27;82351;-54
2022/09/10 07:07:39;;;;;;;0.50;0.50;;;;;;;;;;5044123;27;82078;-54
2022/09/10 07:10:09;;;;;;;0.40;0.40;;;;;;;;;;5044443;28;82498;-54
2022/09/10 07:12:38;;;;;;;0.73;0.50;;;;;;;;;;5044769;27;82965;-54
2022/09/10 07:15:06;;;;;;;0.50;0.50;;;;;;;;;;5036761;27;83845;-54
2022/09/10 07:17:35;;;;;;;0.63;0.50;;;;;;;;;;5024584;28;82456;-54
2022/09/10 07:20:04;;;;;;;1.27;0.73;;;;;;;;;;5025538;28;82501;-54
2022/09/10 07:22:32;;;;;;;0.83;0.47;;;;;;;;;;5043908;28;83779;-54
2022/09/10 07:25:00;;;;;;;4.07;0.87;;;;;;;;;;5034557;28;84625;-53
2022/09/10 07:27:30;;;;;;;0.73;0.60;;;;;;;;;;5024249;28;82393;-54
2022/09/10 07:29:58;;;;;;;1.60;0.50;;;;;;;;;;5034990;27;83627;-54
2022/09/10 07:32:28;;;;;;;1.00;0.60;;;;;;;;;;5062612;27;82732;-54
2022/09/10 07:34:56;;;;;;;0.67;0.47;;;;;;;;;;5051974;27;82802;-53
2022/09/10 07:37:25;;;;;;;0.67;0.60;;;;;;;;;;5049250;27;82118;-54
2022/09/10 07:39:53;;;;;;;1.57;0.57;;;;;;;;;;5065133;27;83516;-54
2022/09/10 07:42:22;;;;;;;0.67;0.67;;;;;;;;;;5062929;27;84421;-54
2022/09/10 07:44:52;;;;;;;1.23;0.70;;;;;;;;;;5030147;27;82746;-54
2022/09/10 07:47:20;;;;;;;3.50;1.63;;;;;;;;;;5045976;27;82759;-54
2022/09/10 07:49:51;;;;;;;1.07;0.93;;;;;;;;;;5050271;27;82910;-54
2022/09/10 07:52:19;;;;;;;1.27;0.80;;;;;;;;;;5042151;27;84009;-54
2022/09/10 07:54:47;;;;;;;1.80;1.17;;;;;;;;;;5044199;27;83685;-54
2022/09/10 07:57:16;;;;;;;1.63;1.07;;;;;;;;;;5053350;27;81770;-54
2022/09/10 07:59:44;;;;;;;2.00;1.37;;;;;;;;;;5050585;27;83897;-53
2022/09/10 08:02:14;;;;;;;1.43;1.07;;;;;;;;;;5064458;27;84212;-54
2022/09/10 08:04:43;;;;;;;3.20;1.57;;;;;;;;;;5062792;27;83955;-54
2022/09/10 08:07:11;;;;;;;2.87;1.57;;;;;;;;;;5054502;27;82117;-54
2022/09/10 08:09:40;;;;;;;2.10;0.90;;;;;;;;;;5058716;27;83632;-54
2022/09/10 08:12:08;;;;;;;2.30;1.30;;;;;;;;;;5042365;27;84736;-54
2022/09/10 08:14:37;;;;;;;2.10;1.30;;;;;;;;;;5045020;27;84760;-54
2022/09/10 08:17:05;;;;;;;1.97;1.00;;;;;;;;;;5045128;27;81992;-54
2022/09/10 08:19:35;;;;;;;2.13;0.90;;;;;;;;;;5045856;27;83509;-53
2022/09/10 08:22:03;;;;;;;1.60;1.00;;;;;;;;;;5047925;27;82861;-50
2022/09/10 08:24:37;;;;;;;1.60;0.83;;;;;;;;;;5048033;27;82721;-50
2022/09/10 08:27:05;;;;;;;1.10;0.97;;;;;;;;;;5047629;28;82022;-49
2022/09/10 08:29:34;;;;;;;2.50;0.90;;;;;;;;;;5064535;27;83890;-50
2022/09/10 08:32:03;;;;;;;2.57;1.30;;;;;;;;;;5065682;27;82878;-50
2022/09/10 08:34:33;;;;;;;0.87;0.83;;;;;;;;;;5050759;27;83794;-50
2022/09/10 08:37:03;;;;;;;0.87;0.80;;;;;;;;;;5043021;27;83488;-50
2022/09/10 08:39:31;;;;;;;2.83;0.93;;;;;;;;;;5047357;27;83637;-50
2022/09/10 08:42:01;;;;;;;1.33;0.90;;;;;;;;;;5047851;27;84156;-50
2022/09/10 08:44:31;;;;;;;1.33;1.00;;;;;;;;;;5047040;27;83755;-50
2022/09/10 08:47:03;;;;;;;1.30;1.13;;;;;;;;;;5046619;27;81835;-50
2022/09/10 08:49:32;;;;;;;1.83;1.53;;;;;;;;;;5046576;27;83311;-49
2022/09/10 08:52:01;;;;;;;2.30;1.43;;;;;;;;;;5064519;27;84160;-50
2022/09/10 08:54:31;;;;;;;1.63;1.20;;;;;;;;;;5046705;27;82811;-50
2022/09/10 08:57:00;;;;;;;3.10;1.70;;;;;;;;;;5048066;27;81839;-50
2022/09/10 08:59:29;;;;;;;2.27;1.50;;;;;;;;;;5051777;27;83624;-50
2022/09/10 09:01:58;;;;;;;1.70;1.50;;;;;;;;;;5034151;27;84009;-50
2022/09/10 09:04:29;;;;;;;1.57;1.03;;;;;;;;;;5040429;27;83612;-50
2022/09/10 09:06:57;;;;;;;1.40;1.10;;;;;;;;;;5047799;27;81948;-50
2022/09/10 09:09:25;;;;;;;1.53;1.07;;;;;;;;;;5048611;27;83678;-49
2022/09/10 09:11:58;;;;;;;1.10;0.90;;;;;;;;;;5045280;27;83691;-50
2022/09/10 09:14:44;;;;;;;1.27;0.93;;;;;;;;;;5049057;27;83707;-50
2022/09/10 09:17:17;;;;;;;3.43;1.33;;;;;;;;;;5026388;28;82002;-49
2022/09/10 09:19:46;;;;;;;1.40;1.20;;;;;;;;;;5050283;27;83691;-50
2022/09/10 09:22:16;;;;;;;1.37;0.87;;;;;;;;;;5026457;28;82602;-50
2022/09/10 09:24:46;;;;;;;1.77;1.20;;;;;;;;;;5042716;27;82506;-50
2022/09/10 09:27:16;;;;;;;2.63;1.20;;;;;;;;;;5045345;27;82999;-50
2022/09/10 09:29:46;;;;;;;2.23;1.07;;;;;;;;;;5048513;27;83795;-50
2022/09/10 09:32:15;;;;;;;1.50;1.20;;;;;;;;;;5050695;27;82899;-50
2022/09/10 09:34:44;;;;;;;2.17;1.33;;;;;;;;;;5061353;27;83847;-50
2022/09/10 09:37:14;;;;;;;3.23;1.73;;;;;;;;;;5050317;27;82222;-50
2022/09/10 09:39:43;;;;;;;0.73;0.73;;;;;;;;;;5060408;27;84007;-50
2022/09/10 09:42:13;;;;;;;2.60;0.97;;;;;;;;;;5062571;27;83063;-49
2022/09/10 09:44:45;;;;;;;1.33;1.23;;;;;;;;;;5046502;27;83837;-49
2022/09/10 09:47:13;;;;;;;1.50;1.10;;;;;;;;;;5024090;27;82470;-49
2022/09/10 09:49:42;;;;;;;2.07;1.10;;;;;;;;;;5056716;27;84010;-50
2022/09/10 09:52:17;;;;;;;2.30;1.20;;;;;;;;;;5054191;27;83923;-58
2022/09/10 09:54:46;;;;;;;0.90;0.87;;;;;;;;;;5064147;27;84652;-49
2022/09/10 09:57:34;;;;;;;1.50;1.00;;;;;;;;;;5065925;27;82298;-50
2022/09/10 10:00:11;;;;;;;1.40;1.30;;;;;;;;;;5065552;27;83768;-50
2022/09/10 10:02:40;;;;;;;1.57;1.17;;;;;;;;;;5065463;27;83883;-50
2022/09/10 10:05:24;;;;;;;2.53;1.13;;;;;;;;;;5066034;27;83832;-50
2022/09/10 10:07:52;;;;;;;2.03;1.07;;;;;;;;;;5066038;27;81865;-50
2022/09/10 10:10:22;;;;;;;7.40;1.10;;;;;;;;;;5065591;27;83566;-50
2022/09/10 10:12:51;;;;;;;1.97;1.10;;;;;;;;;;5065364;27;84144;-49
2022/09/10 10:15:35;;;;;;;1.93;1.00;;;;;;;;;;5065325;27;83477;-50
2022/09/10 10:18:07;;;;;;;0.70;0.70;;;;;;;;;;5064089;27;82967;-50
2022/09/10 10:20:36;;;;;;;1.83;1.10;;;;;;;;;;5043709;27;82760;-50
2022/09/10 10:23:06;;;;;;;3.33;1.07;;;;;;;;;;5041412;28;83109;-50
2022/09/10 10:25:39;;;;;;;1.53;1.00;;;;;;;;;;5043788;27;82301;-50
2022/09/10 10:28:14;;;;;;;0.80;0.70;;;;;;;;;;5041430;28;82852;-50
2022/09/10 10:30:43;;;;;;;2.67;1.40;;;;;;;;;;5041388;28;83590;-50
2022/09/10 10:33:18;;;;;;;1.00;0.83;;;;;;;;;;5043757;28;82180;-50
2022/09/10 10:35:47;;;;;;;3.63;0.87;;;;;;;;;;5041536;28;84031;-49
2022/09/10 10:38:40;;;;;;;1.00;0.90;;;;;;;;;;5043352;28;82681;-49
2022/09/10 10:41:12;;;;;;;0.97;0.87;;;;;;;;;;5028305;27;82678;-50
2022/09/10 10:43:43;;;;;;;1.37;0.60;;;;;;;;;;5041866;28;84922;-50
2022/09/10 10:46:12;;;;;;;1.10;1.00;;;;;;;;;;5043625;28;84702;-49
2022/09/10 10:48:47;;;;;;;0.50;0.50;;;;;;;;;;5044654;28;81957;-50
2022/09/10 10:51:16;;;;;;;0.63;0.53;;;;;;;;;;5044518;28;82851;-51
2022/09/10 10:53:52;;;;;;;0.70;0.70;;;;;;;;;;5043228;28;84393;-49
2022/09/10 10:56:22;;;;;;;1.07;0.60;;;;;;;;;;5041936;28;83918;-50
2022/09/10 10:58:58;;;;;;;1.03;0.97;;;;;;;;;;5043784;27;81937;-49
2022/09/10 11:01:27;;;;;;;0.97;0.70;;;;;;;;;;5041193;28;83780;-49
2022/09/10 11:03:59;;;;;;;0.80;0.73;;;;;;;;;;5043569;28;84238;-49
2022/09/10 11:06:29;;;;;;;0.93;0.73;;;;;;;;;;5041461;28;82460;-50
2022/09/10 11:08:57;;;;;;;1.17;0.90;;;;;;;;;;5042326;28;82766;-49
2022/09/10 11:11:28;;;;;;;1.43;0.90;;;;;;;;;;5042489;28;82651;-50
2022/09/10 11:13:57;;;;;;;1.17;0.73;;;;;;;;;;5042801;28;83645;-50
2022/09/10 11:16:26;;;;;;;1.13;0.97;;;;;;;;;;5040385;28;83652;-50
2022/09/10 11:18:56;;;;;;;1.57;1.00;;;;;;;;;;5042053;28;82493;-50
2022/09/10 11:21:28;;;;;;;2.80;1.27;;;;;;;;;;5040817;28;83803;-50
2022/09/10 11:23:58;;;;;;;2.83;1.00;;;;;;;;;;5042898;28;84038;-50
2022/09/10 11:26:28;;;;;;;1.30;1.20;;;;;;;;;;5042823;28;82762;-50
2022/09/10 11:28:58;;;;;;;1.50;1.40;;;;;;;;;;5042997;28;82020;-49
2022/09/10 11:31:29;;;;;;;2.83;1.40;;;;;;;;;;5040644;28;83690;-49
2022/09/10 11:33:58;;;;;;;1.90;1.60;;;;;;;;;;5042218;28;83754;-50
2022/09/10 11:36:30;;;;;;;2.27;1.63;;;;;;;;;;5042625;28;84591;-50
2022/09/10 11:39:01;;;;;;;3.37;1.80;;;;;;;;;;5042561;28;81958;-49
2022/09/10 11:41:31;;;;;;;8.13;1.70;;;;;;;;;;5041674;28;83879;-50
2022/09/10 11:44:02;;;;;;;3.57;1.83;;;;;;;;;;5042368;27;83077;-49
2022/09/10 11:46:31;;;;;;;2.97;1.40;;;;;;;;;;5042672;28;83883;-49
2022/09/10 11:49:02;;;;;;;3.47;2.00;;;;;;;;;;5042596;28;82498;-50
2022/09/10 11:51:33;;;;;;;3.77;1.80;;;;;;;;;;5043040;28;83953;-50
2022/09/10 11:54:01;;;;;;;2.03;1.77;;;;;;;;;;5039413;28;83750;-49
2022/09/10 11:56:44;;;;;;;3.80;1.60;;;;;;;;;;5041042;28;82488;-50
2022/09/10 11:59:16;;;;;;;2.30;1.70;;;;;;;;;;5039649;27;83061;-50
2022/09/10 12:01:51;;;;;;;3.23;2.13;;;;;;;;;;5040611;28;83630;-50
2022/09/10 12:04:23;;;;;;;3.13;1.87;;;;;;;;;;5041797;28;84253;-50
2022/09/10 12:06:56;;;;;;;7.07;2.20;;;;;;;;;;5034169;28;83546;-49
2022/09/10 12:09:25;;;;;;;4.60;2.10;;;;;;;;;;5040287;28;81960;-50
2022/09/10 12:11:55;;;;;;;2.40;1.83;;;;;;;;;;5041218;28;83890;-49
2022/09/10 12:14:23;;;;;;;4.30;2.20;;;;;;;;;;5039299;28;82819;-50
2022/09/10 12:16:52;;;;;;;2.67;1.87;;;;;;;;;;5043282;28;81763;-50
2022/09/10 12:19:22;;;;;;;2.83;2.20;;;;;;;;;;5039789;28;81966;-50
2022/09/10 12:21:51;;;;;;;5.47;2.13;;;;;;;;;;5041709;28;83916;-50
2022/09/10 12:24:25;;;;;;;2.40;1.97;;;;;;;;;;5040947;28;82983;-50
2022/09/10 12:26:53;;;;;;;3.63;1.90;;;;;;;;;;5041703;28;83368;-50
2022/09/10 12:29:26;;;;;;;3.13;2.03;;;;;;;;;;5042448;28;81958;-50
2022/09/10 12:32:13;;;;;;;3.40;1.63;;;;;;;;;;5042245;27;83738;-50
2022/09/10 12:34:41;;;;;;;5.23;2.87;;;;;;;;;;5040620;28;83675;-49
2022/09/10 12:37:20;;;;;;;3.50;2.37;;;;;;;;;;5041977;28;82564;-50
2022/09/10 12:39:49;;;;;;;4.03;2.10;;;;;;;;;;5043701;28;82062;-49
2022/09/10 12:42:44;;;;;;;5.10;3.10;;;;;;;;;;5042810;28;82781;-50
2022/09/10 12:45:12;;;;;;;2.23;1.70;;;;;;;;;;5041042;27;83848;-51
2022/09/10 12:47:52;;;;;;;3.43;2.27;;;;;;;;;;5044080;28;82511;-48
2022/09/10 12:50:23;;;;;;;2.60;2.07;;;;;;;;;;5042781;28;82630;-50
2022/09/10 12:52:58;;;;;;;3.37;2.07;;;;;;;;;;5043426;28;82584;-50
2022/09/10 12:55:34;;;;;;;3.03;2.27;;;;;;;;;;5043623;28;84012;-50
2022/09/10 12:58:05;;;;;;;2.73;2.20;;;;;;;;;;5043469;27;83631;-50
2022/09/10 13:00:37;;;;;;;3.73;2.03;;;;;;;;;;5043564;28;81895;-50
2022/09/10 13:03:10;;;;;;;2.37;2.17;;;;;;;;;;5043585;28;83705;-50
2022/09/10 13:05:39;;;;;;;3.77;2.13;;;;;;;;;;5043553;27;82591;-50
2022/09/10 13:08:10;;;;;;;3.10;1.73;;;;;;;;;;5046956;28;83604;-50
2022/09/10 13:10:40;;;;;;;3.40;2.07;;;;;;;;;;5046911;28;82005;-50
2022/09/10 13:13:25;;;;;;;3.00;2.13;;;;;;;;;;5046898;28;83862;-49
2022/09/10 13:15:53;;;;;;;2.73;2.20;;;;;;;;;;5045659;28;84853;-50
2022/09/10 13:18:23;;;;;;;4.10;1.70;;;;;;;;;;5046262;27;84946;-50
2022/09/10 13:20:51;;;;;;;1.87;1.50;;;;;;;;;;5046541;28;81939;-50
2022/09/10 13:23:20;;;;;;;4.67;2.10;;;;;;;;;;5046180;28;83830;-50
2022/09/10 13:25:50;;;;;;;2.67;2.03;;;;;;;;;;5046532;28;84151;-50
2022/09/10 13:28:39;;;;;;;5.03;1.93;;;;;;;;;;5046654;28;83626;-50
2022/09/10 13:31:11;;;;;;;1.90;1.40;;;;;;;;;;5045972;27;81995;-50
2022/09/10 13:33:42;;;;;;;2.90;1.50;;;;;;;;;;5046254;28;84043;-49
2022/09/10 13:36:12;;;;;;;2.23;1.50;;;;;;;;;;5046244;28;84004;-50
2022/09/10 13:38:54;;;;;;;2.57;1.07;;;;;;;;;;5046096;28;83810;-50
2022/09/10 13:41:48;;;;;;;1.60;1.47;;;;;;;;;;5045172;28;82939;-50
2022/09/10 13:44:20;;;;;;;3.33;1.57;;;;;;;;;;5045945;28;81677;-50
2022/09/10 13:46:49;;;;;;;1.90;1.13;;;;;;;;;;5045326;28;84299;-50
2022/09/10 13:49:19;;;;;;;1.30;1.20;;;;;;;;;;5045727;28;83520;-50
2022/09/10 13:51:50;;;;;;;1.73;1.37;;;;;;;;;;5046199;28;81954;-50
2022/09/10 13:54:28;;;;;;;1.30;1.00;;;;;;;;;;5046217;28;82431;-50
2022/09/10 13:56:58;;;;;;;2.07;1.30;;;;;;;;;;5045760;28;83974;-49
2022/09/10 13:59:29;;;;;;;1.23;1.13;;;;;;;;;;5046119;27;81648;-50
2022/09/10 14:01:58;;;;;;;2.33;1.07;;;;;;;;;;5045539;28;82070;-49
2022/09/10 14:04:27;;;;;;;1.60;0.93;;;;;;;;;;5045749;28;82502;-50
2022/09/10 14:06:57;;;;;;;1.00;0.97;;;;;;;;;;5045267;28;84665;-50
2022/09/10 14:09:25;;;;;;;2.30;0.93;;;;;;;;;;5045310;28;85009;-50
2022/09/10 14:11:54;;;;;;;0.93;0.80;;;;;;;;;;5045445;28;82009;-50
2022/09/10 14:14:24;;;;;;;2.53;1.00;;;;;;;;;;5044420;28;83677;-49
2022/09/10 14:16:53;;;;;;;1.70;1.10;;;;;;;;;;5045072;27;83075;-50
2022/09/10 14:19:22;;;;;;;3.27;1.40;;;;;;;;;;5044632;28;83938;-50
2022/09/10 14:21:52;;;;;;;1.97;1.37;;;;;;;;;;5045328;28;81892;-50
2022/09/10 14:24:28;;;;;;;1.93;0.90;;;;;;;;;;5045884;28;85963;-50
2022/09/10 14:27:07;;;;;;;1.13;0.97;;;;;;;;;;5045189;28;82977;-49
2022/09/10 14:29:36;;;;;;;1.37;1.00;;;;;;;;;;5045583;28;83740;-52
2022/09/10 14:32:32;;;;;;;2.83;1.53;;;;;;;;;;5045175;27;82800;-50
2022/09/10 14:35:00;;;;;;;0.93;0.90;;;;;;;;;;5019912;27;84066;-50
2022/09/10 14:37:36;;;;;;;1.93;1.50;;;;;;;;;;5043544;28;82828;-49
2022/09/10 14:40:06;;;;;;;1.57;1.00;;;;;;;;;;5043320;27;81893;-50
2022/09/10 14:42:35;;;;;;;1.43;1.20;;;;;;;;;;5042524;28;83023;-49
2022/09/10 14:45:05;;;;;;;3.10;1.30;;;;;;;;;;5042206;28;83734;-49
2022/09/10 14:47:35;;;;;;;3.10;1.47;;;;;;;;;;5041968;28;83891;-50
2022/09/10 14:50:22;;;;;;;6.63;1.40;;;;;;;;;;5040382;28;83599;-50
2022/09/10 14:52:50;;;;;;;2.10;1.50;;;;;;;;;;5041913;28;82292;-50
2022/09/10 14:55:19;;;;;;;4.03;1.33;;;;;;;;;;5042304;28;83877;-49
2022/09/10 14:57:47;;;;;;;1.73;1.50;;;;;;;;;;5043593;28;83774;-50
2022/09/10 15:00:17;;;;;;;2.20;1.77;;;;;;;;;;5043788;28;84476;-50
2022/09/10 15:02:47;;;;;;;2.43;1.40;;;;;;;;;;5042792;28;82383;-50